sensor_id;sensor_type;location;lat;lon;timestamp;P1;durP1;ratioP1;P2;durP2;ratioP2
77012;SDS011;65946;53.130;17.982;2023-01-23T00:01:01;13.40;;;6.50;;
77012;SDS011;65946;53.130;17.982;2023-01-23T00:03:30;11.50;;;5.30;;
77012;SDS011;65946;53.130;17.982;2023-01-23T00:08:28;11.60;;;6.00;;
77012;SDS011;65946;53.130;17.982;2023-01-23T00:10:55;12.40;;;5.30;;
77012;SDS011;65946;53.130;17.982;2023-01-23T00:13:22;11.70;;;5.40;;
77012;SDS011;65946;53.130;17.982;2023-01-23T00:15:49;10.50;;;4.90;;
77012;SDS011;65946;53.130;17.982;2023-01-23T00:18:16;10.10;;;4.70;;
77012;SDS011;65946;53.130;17.982;2023-01-23T00:20:43;11.20;;;5.30;;
77012;SDS011;65946;53.130;17.982;2023-01-23T00:23:10;11.80;;;5.60;;
77012;SDS011;65946;53.130;17.982;2023-01-23T00:25:37;12.90;;;6.00;;
77012;SDS011;65946;53.130;17.982;2023-01-23T00:28:04;14.30;;;5.80;;
77012;SDS011;65946;53.130;17.982;2023-01-23T00:30:32;12.70;;;5.60;;
77012;SDS011;65946;53.130;17.982;2023-01-23T00:32:59;9.60;;;4.80;;
77012;SDS011;65946;53.130;17.982;2023-01-23T00:35:26;17.20;;;7.20;;
77012;SDS011;65946;53.130;17.982;2023-01-23T00:37:54;8.60;;;4.30;;
77012;SDS011;65946;53.130;17.982;2023-01-23T00:40:21;12.00;;;5.80;;
77012;SDS011;65946;53.130;17.982;2023-01-23T00:45:14;15.00;;;5.90;;
77012;SDS011;65946;53.130;17.982;2023-01-23T00:47:41;12.70;;;5.80;;
77012;SDS011;65946;53.130;17.982;2023-01-23T00:50:08;13.00;;;5.90;;
77012;SDS011;65946;53.130;17.982;2023-01-23T00:52:36;14.70;;;6.60;;
77012;SDS011;65946;53.130;17.982;2023-01-23T00:55:03;11.90;;;4.80;;
77012;SDS011;65946;53.130;17.982;2023-01-23T00:57:30;12.50;;;5.80;;
77012;SDS011;65946;53.130;17.982;2023-01-23T00:59:57;12.10;;;5.10;;
77012;SDS011;65946;53.130;17.982;2023-01-23T01:04:50;14.10;;;5.90;;
77012;SDS011;65946;53.130;17.982;2023-01-23T01:07:17;10.80;;;5.60;;
77012;SDS011;65946;53.130;17.982;2023-01-23T01:09:44;14.90;;;6.50;;
77012;SDS011;65946;53.130;17.982;2023-01-23T01:12:10;12.80;;;6.00;;
77012;SDS011;65946;53.130;17.982;2023-01-23T01:17:04;12.10;;;5.90;;
77012;SDS011;65946;53.130;17.982;2023-01-23T01:19:30;11.40;;;5.00;;
77012;SDS011;65946;53.130;17.982;2023-01-23T01:21:57;14.30;;;6.60;;
77012;SDS011;65946;53.130;17.982;2023-01-23T01:24:23;13.70;;;6.00;;
77012;SDS011;65946;53.130;17.982;2023-01-23T01:26:52;14.10;;;6.00;;
77012;SDS011;65946;53.130;17.982;2023-01-23T01:29:18;14.00;;;6.60;;
77012;SDS011;65946;53.130;17.982;2023-01-23T01:31:46;13.50;;;6.20;;
77012;SDS011;65946;53.130;17.982;2023-01-23T01:34:12;15.00;;;7.10;;
77012;SDS011;65946;53.130;17.982;2023-01-23T01:39:06;12.10;;;6.10;;
77012;SDS011;65946;53.130;17.982;2023-01-23T01:41:33;15.20;;;6.90;;
77012;SDS011;65946;53.130;17.982;2023-01-23T01:44:01;16.30;;;7.60;;
77012;SDS011;65946;53.130;17.982;2023-01-23T01:46:28;14.90;;;7.00;;
77012;SDS011;65946;53.130;17.982;2023-01-23T01:51:35;15.70;;;6.80;;
77012;SDS011;65946;53.130;17.982;2023-01-23T01:54:08;13.60;;;5.90;;
77012;SDS011;65946;53.130;17.982;2023-01-23T01:56:47;14.50;;;6.10;;
77012;SDS011;65946;53.130;17.982;2023-01-23T01:59:17;14.20;;;6.10;;
77012;SDS011;65946;53.130;17.982;2023-01-23T02:01:48;13.80;;;6.20;;
77012;SDS011;65946;53.130;17.982;2023-01-23T02:04:18;13.80;;;5.90;;
77012;SDS011;65946;53.130;17.982;2023-01-23T02:06:46;16.80;;;6.80;;
77012;SDS011;65946;53.130;17.982;2023-01-23T02:09:16;13.70;;;5.50;;
77012;SDS011;65946;53.130;17.982;2023-01-23T02:11:49;12.10;;;5.30;;
77012;SDS011;65946;53.130;17.982;2023-01-23T02:14:18;13.30;;;5.90;;
77012;SDS011;65946;53.130;17.982;2023-01-23T02:16:48;12.90;;;5.80;;
77012;SDS011;65946;53.130;17.982;2023-01-23T02:19:21;10.10;;;4.80;;
77012;SDS011;65946;53.130;17.982;2023-01-23T02:21:49;9.90;;;4.50;;
77012;SDS011;65946;53.130;17.982;2023-01-23T02:24:24;13.30;;;6.10;;
77012;SDS011;65946;53.130;17.982;2023-01-23T02:26:57;12.70;;;5.40;;
77012;SDS011;65946;53.130;17.982;2023-01-23T02:29:24;10.90;;;5.20;;
77012;SDS011;65946;53.130;17.982;2023-01-23T02:31:53;12.50;;;5.30;;
77012;SDS011;65946;53.130;17.982;2023-01-23T02:34:22;14.60;;;5.90;;
77012;SDS011;65946;53.130;17.982;2023-01-23T02:36:52;11.20;;;4.90;;
77012;SDS011;65946;53.130;17.982;2023-01-23T02:39:20;8.70;;;4.60;;
77012;SDS011;65946;53.130;17.982;2023-01-23T02:41:50;11.20;;;5.30;;
77012;SDS011;65946;53.130;17.982;2023-01-23T02:44:21;11.90;;;5.20;;
77012;SDS011;65946;53.130;17.982;2023-01-23T02:46:59;12.90;;;5.70;;
77012;SDS011;65946;53.130;17.982;2023-01-23T02:49:29;12.30;;;5.00;;
77012;SDS011;65946;53.130;17.982;2023-01-23T02:51:56;11.40;;;4.90;;
77012;SDS011;65946;53.130;17.982;2023-01-23T02:54:23;11.70;;;5.60;;
77012;SDS011;65946;53.130;17.982;2023-01-23T02:56:50;11.60;;;4.80;;
77012;SDS011;65946;53.130;17.982;2023-01-23T02:59:17;11.00;;;4.60;;
77012;SDS011;65946;53.130;17.982;2023-01-23T03:02:03;13.20;;;5.30;;
77012;SDS011;65946;53.130;17.982;2023-01-23T03:04:31;13.40;;;5.50;;
77012;SDS011;65946;53.130;17.982;2023-01-23T03:06:58;11.60;;;5.10;;
77012;SDS011;65946;53.130;17.982;2023-01-23T03:11:52;11.20;;;4.40;;
77012;SDS011;65946;53.130;17.982;2023-01-23T03:14:19;10.90;;;5.10;;
77012;SDS011;65946;53.130;17.982;2023-01-23T03:16:47;11.10;;;5.20;;
77012;SDS011;65946;53.130;17.982;2023-01-23T03:19:17;5.20;;;2.30;;
77012;SDS011;65946;53.130;17.982;2023-01-23T03:21:44;11.20;;;5.40;;
77012;SDS011;65946;53.130;17.982;2023-01-23T03:24:12;11.30;;;5.00;;
77012;SDS011;65946;53.130;17.982;2023-01-23T03:26:43;11.20;;;4.90;;
77012;SDS011;65946;53.130;17.982;2023-01-23T03:29:14;8.30;;;4.00;;
77012;SDS011;65946;53.130;17.982;2023-01-23T03:32:01;8.30;;;3.80;;
77012;SDS011;65946;53.130;17.982;2023-01-23T03:34:29;6.60;;;3.30;;
77012;SDS011;65946;53.130;17.982;2023-01-23T03:36:57;6.60;;;2.90;;
77012;SDS011;65946;53.130;17.982;2023-01-23T03:39:24;10.20;;;4.60;;
77012;SDS011;65946;53.130;17.982;2023-01-23T03:42:09;12.60;;;5.80;;
77012;SDS011;65946;53.130;17.982;2023-01-23T03:47:02;8.70;;;3.50;;
77012;SDS011;65946;53.130;17.982;2023-01-23T03:49:30;6.10;;;2.90;;
77012;SDS011;65946;53.130;17.982;2023-01-23T03:51:58;7.00;;;3.30;;
77012;SDS011;65946;53.130;17.982;2023-01-23T03:54:25;10.30;;;4.80;;
77012;SDS011;65946;53.130;17.982;2023-01-23T03:56:53;7.40;;;3.90;;
77012;SDS011;65946;53.130;17.982;2023-01-23T03:59:38;9.80;;;4.60;;
77012;SDS011;65946;53.130;17.982;2023-01-23T04:02:05;9.20;;;4.20;;
77012;SDS011;65946;53.130;17.982;2023-01-23T04:04:33;10.30;;;4.60;;
77012;SDS011;65946;53.130;17.982;2023-01-23T04:07:01;11.50;;;5.30;;
77012;SDS011;65946;53.130;17.982;2023-01-23T04:09:28;10.20;;;5.00;;
77012;SDS011;65946;53.130;17.982;2023-01-23T04:11:56;10.50;;;5.00;;
77012;SDS011;65946;53.130;17.982;2023-01-23T04:14:25;10.40;;;5.00;;
77012;SDS011;65946;53.130;17.982;2023-01-23T04:16:53;7.40;;;3.30;;
77012;SDS011;65946;53.130;17.982;2023-01-23T04:19:19;9.50;;;5.00;;
77012;SDS011;65946;53.130;17.982;2023-01-23T04:21:47;7.20;;;3.10;;
77012;SDS011;65946;53.130;17.982;2023-01-23T04:24:15;8.10;;;4.10;;
77012;SDS011;65946;53.130;17.982;2023-01-23T04:26:43;9.20;;;4.20;;
77012;SDS011;65946;53.130;17.982;2023-01-23T04:31:38;10.20;;;5.00;;
77012;SDS011;65946;53.130;17.982;2023-01-23T04:34:05;6.90;;;3.50;;
77012;SDS011;65946;53.130;17.982;2023-01-23T04:36:31;9.80;;;4.90;;
77012;SDS011;65946;53.130;17.982;2023-01-23T04:41:26;9.20;;;4.30;;
77012;SDS011;65946;53.130;17.982;2023-01-23T04:44:01;9.70;;;4.70;;
77012;SDS011;65946;53.130;17.982;2023-01-23T04:46:52;10.30;;;4.80;;
77012;SDS011;65946;53.130;17.982;2023-01-23T04:49:20;12.30;;;5.40;;
77012;SDS011;65946;53.130;17.982;2023-01-23T04:51:48;6.40;;;2.80;;
77012;SDS011;65946;53.130;17.982;2023-01-23T04:54:17;9.80;;;4.30;;
77012;SDS011;65946;53.130;17.982;2023-01-23T04:56:45;12.00;;;4.90;;
77012;SDS011;65946;53.130;17.982;2023-01-23T04:59:14;10.40;;;4.70;;
77012;SDS011;65946;53.130;17.982;2023-01-23T05:01:42;10.70;;;4.80;;
77012;SDS011;65946;53.130;17.982;2023-01-23T05:04:09;9.80;;;4.00;;
77012;SDS011;65946;53.130;17.982;2023-01-23T05:06:37;10.80;;;5.00;;
77012;SDS011;65946;53.130;17.982;2023-01-23T05:09:04;15.50;;;7.50;;
77012;SDS011;65946;53.130;17.982;2023-01-23T05:11:39;10.20;;;4.30;;
77012;SDS011;65946;53.130;17.982;2023-01-23T05:14:06;12.40;;;5.50;;
77012;SDS011;65946;53.130;17.982;2023-01-23T05:16:33;6.00;;;2.00;;
77012;SDS011;65946;53.130;17.982;2023-01-23T05:19:17;12.00;;;5.50;;
77012;SDS011;65946;53.130;17.982;2023-01-23T05:21:44;8.30;;;3.60;;
77012;SDS011;65946;53.130;17.982;2023-01-23T05:24:16;9.10;;;3.70;;
77012;SDS011;65946;53.130;17.982;2023-01-23T05:29:10;7.10;;;3.20;;
77012;SDS011;65946;53.130;17.982;2023-01-23T05:31:40;11.10;;;5.70;;
77012;SDS011;65946;53.130;17.982;2023-01-23T05:34:43;9.80;;;4.10;;
77012;SDS011;65946;53.130;17.982;2023-01-23T05:37:29;13.50;;;5.60;;
77012;SDS011;65946;53.130;17.982;2023-01-23T05:39:59;10.90;;;5.20;;
77012;SDS011;65946;53.130;17.982;2023-01-23T05:42:36;7.30;;;3.80;;
77012;SDS011;65946;53.130;17.982;2023-01-23T05:45:32;11.90;;;5.10;;
77012;SDS011;65946;53.130;17.982;2023-01-23T05:48:00;12.10;;;5.70;;
77012;SDS011;65946;53.130;17.982;2023-01-23T05:50:27;11.10;;;5.70;;
77012;SDS011;65946;53.130;17.982;2023-01-23T05:52:54;19.50;;;8.00;;
77012;SDS011;65946;53.130;17.982;2023-01-23T05:55:21;12.30;;;5.60;;
77012;SDS011;65946;53.130;17.982;2023-01-23T05:57:49;12.60;;;6.20;;
77012;SDS011;65946;53.130;17.982;2023-01-23T06:00:38;6.20;;;2.80;;
77012;SDS011;65946;53.130;17.982;2023-01-23T06:03:44;11.00;;;4.90;;
77012;SDS011;65946;53.130;17.982;2023-01-23T06:06:27;11.50;;;5.40;;
77012;SDS011;65946;53.130;17.982;2023-01-23T06:11:20;8.70;;;4.00;;
77012;SDS011;65946;53.130;17.982;2023-01-23T06:13:47;9.50;;;4.00;;
77012;SDS011;65946;53.130;17.982;2023-01-23T06:16:14;8.40;;;3.90;;
77012;SDS011;65946;53.130;17.982;2023-01-23T06:21:08;9.40;;;4.60;;
77012;SDS011;65946;53.130;17.982;2023-01-23T06:23:36;11.40;;;4.50;;
77012;SDS011;65946;53.130;17.982;2023-01-23T06:26:02;14.00;;;5.90;;
77012;SDS011;65946;53.130;17.982;2023-01-23T06:28:30;14.30;;;6.30;;
77012;SDS011;65946;53.130;17.982;2023-01-23T06:31:00;12.30;;;6.50;;
77012;SDS011;65946;53.130;17.982;2023-01-23T06:33:35;19.60;;;7.70;;
77012;SDS011;65946;53.130;17.982;2023-01-23T06:36:05;12.70;;;6.40;;
77012;SDS011;65946;53.130;17.982;2023-01-23T06:38:32;22.80;;;8.90;;
77012;SDS011;65946;53.130;17.982;2023-01-23T06:40:59;15.90;;;6.70;;
77012;SDS011;65946;53.130;17.982;2023-01-23T06:43:30;12.60;;;5.80;;
77012;SDS011;65946;53.130;17.982;2023-01-23T06:45:57;12.10;;;5.70;;
77012;SDS011;65946;53.130;17.982;2023-01-23T06:48:24;12.90;;;5.40;;
77012;SDS011;65946;53.130;17.982;2023-01-23T06:50:50;13.70;;;5.50;;
77012;SDS011;65946;53.130;17.982;2023-01-23T06:53:17;14.60;;;6.20;;
77012;SDS011;65946;53.130;17.982;2023-01-23T06:55:44;9.60;;;5.00;;
77012;SDS011;65946;53.130;17.982;2023-01-23T06:58:12;13.90;;;7.00;;
77012;SDS011;65946;53.130;17.982;2023-01-23T07:00:39;11.30;;;5.40;;
77012;SDS011;65946;53.130;17.982;2023-01-23T07:03:10;17.10;;;8.20;;
77012;SDS011;65946;53.130;17.982;2023-01-23T07:05:40;15.70;;;6.40;;
77012;SDS011;65946;53.130;17.982;2023-01-23T07:08:08;14.80;;;6.50;;
77012;SDS011;65946;53.130;17.982;2023-01-23T07:13:03;14.30;;;6.90;;
77012;SDS011;65946;53.130;17.982;2023-01-23T07:15:31;14.60;;;6.80;;
77012;SDS011;65946;53.130;17.982;2023-01-23T07:17:59;17.10;;;8.70;;
77012;SDS011;65946;53.130;17.982;2023-01-23T07:20:26;15.20;;;7.40;;
77012;SDS011;65946;53.130;17.982;2023-01-23T07:22:55;14.30;;;7.30;;
77012;SDS011;65946;53.130;17.982;2023-01-23T07:25:23;15.40;;;6.70;;
77012;SDS011;65946;53.130;17.982;2023-01-23T07:27:50;8.60;;;4.20;;
77012;SDS011;65946;53.130;17.982;2023-01-23T07:30:17;10.10;;;4.40;;
77012;SDS011;65946;53.130;17.982;2023-01-23T07:32:44;7.60;;;3.70;;
77012;SDS011;65946;53.130;17.982;2023-01-23T07:35:10;16.60;;;8.40;;
77012;SDS011;65946;53.130;17.982;2023-01-23T07:37:37;15.60;;;6.90;;
77012;SDS011;65946;53.130;17.982;2023-01-23T07:42:31;9.20;;;3.70;;
77012;SDS011;65946;53.130;17.982;2023-01-23T07:44:58;14.50;;;5.80;;
77012;SDS011;65946;53.130;17.982;2023-01-23T07:47:24;14.00;;;6.60;;
77012;SDS011;65946;53.130;17.982;2023-01-23T07:49:51;15.10;;;7.30;;
77012;SDS011;65946;53.130;17.982;2023-01-23T07:52:18;7.90;;;3.80;;
77012;SDS011;65946;53.130;17.982;2023-01-23T07:54:44;15.40;;;7.10;;
77012;SDS011;65946;53.130;17.982;2023-01-23T07:57:11;13.30;;;6.30;;
77012;SDS011;65946;53.130;17.982;2023-01-23T07:59:37;8.50;;;4.00;;
77012;SDS011;65946;53.130;17.982;2023-01-23T08:02:04;10.40;;;4.50;;
77012;SDS011;65946;53.130;17.982;2023-01-23T08:04:31;14.90;;;7.10;;
77012;SDS011;65946;53.130;17.982;2023-01-23T08:06:57;10.70;;;6.00;;
77012;SDS011;65946;53.130;17.982;2023-01-23T08:09:24;15.40;;;7.40;;
77012;SDS011;65946;53.130;17.982;2023-01-23T08:11:51;14.70;;;7.60;;
77012;SDS011;65946;53.130;17.982;2023-01-23T08:14:18;16.70;;;8.40;;
77012;SDS011;65946;53.130;17.982;2023-01-23T08:16:48;10.00;;;4.80;;
77012;SDS011;65946;53.130;17.982;2023-01-23T08:19:16;14.50;;;6.10;;
77012;SDS011;65946;53.130;17.982;2023-01-23T08:21:43;9.50;;;4.80;;
77012;SDS011;65946;53.130;17.982;2023-01-23T08:24:11;13.10;;;5.50;;
77012;SDS011;65946;53.130;17.982;2023-01-23T08:26:39;11.20;;;5.10;;
77012;SDS011;65946;53.130;17.982;2023-01-23T08:29:07;11.50;;;5.40;;
77012;SDS011;65946;53.130;17.982;2023-01-23T08:31:34;10.80;;;4.90;;
77012;SDS011;65946;53.130;17.982;2023-01-23T08:34:01;12.10;;;5.50;;
77012;SDS011;65946;53.130;17.982;2023-01-23T08:36:28;8.30;;;4.10;;
77012;SDS011;65946;53.130;17.982;2023-01-23T08:38:54;11.20;;;5.80;;
77012;SDS011;65946;53.130;17.982;2023-01-23T08:41:21;13.80;;;6.90;;
77012;SDS011;65946;53.130;17.982;2023-01-23T08:43:51;16.70;;;8.00;;
77012;SDS011;65946;53.130;17.982;2023-01-23T08:46:18;9.00;;;4.30;;
77012;SDS011;65946;53.130;17.982;2023-01-23T08:48:44;14.90;;;7.30;;
77012;SDS011;65946;53.130;17.982;2023-01-23T08:51:12;17.10;;;7.90;;
77012;SDS011;65946;53.130;17.982;2023-01-23T08:53:40;15.50;;;8.80;;
77012;SDS011;65946;53.130;17.982;2023-01-23T08:56:10;12.20;;;6.60;;
77012;SDS011;65946;53.130;17.982;2023-01-23T08:58:40;10.40;;;4.40;;
77012;SDS011;65946;53.130;17.982;2023-01-23T09:01:14;10.90;;;4.80;;
77012;SDS011;65946;53.130;17.982;2023-01-23T09:03:45;12.70;;;6.00;;
77012;SDS011;65946;53.130;17.982;2023-01-23T09:06:13;12.10;;;6.20;;
77012;SDS011;65946;53.130;17.982;2023-01-23T09:08:42;13.00;;;6.30;;
77012;SDS011;65946;53.130;17.982;2023-01-23T09:11:09;13.50;;;6.60;;
77012;SDS011;65946;53.130;17.982;2023-01-23T09:13:37;12.60;;;6.30;;
77012;SDS011;65946;53.130;17.982;2023-01-23T09:16:04;11.00;;;5.00;;
77012;SDS011;65946;53.130;17.982;2023-01-23T09:18:33;16.70;;;7.80;;
77012;SDS011;65946;53.130;17.982;2023-01-23T09:21:04;10.70;;;5.70;;
77012;SDS011;65946;53.130;17.982;2023-01-23T09:23:36;9.60;;;3.90;;
77012;SDS011;65946;53.130;17.982;2023-01-23T09:26:08;13.70;;;7.50;;
77012;SDS011;65946;53.130;17.982;2023-01-23T09:28:37;15.30;;;7.70;;
77012;SDS011;65946;53.130;17.982;2023-01-23T09:31:09;12.70;;;6.50;;
77012;SDS011;65946;53.130;17.982;2023-01-23T09:33:37;9.70;;;5.00;;
77012;SDS011;65946;53.130;17.982;2023-01-23T09:36:04;10.40;;;4.90;;
77012;SDS011;65946;53.130;17.982;2023-01-23T09:38:31;11.30;;;5.80;;
77012;SDS011;65946;53.130;17.982;2023-01-23T09:40:59;15.00;;;7.90;;
77012;SDS011;65946;53.130;17.982;2023-01-23T09:43:42;20.10;;;6.90;;
77012;SDS011;65946;53.130;17.982;2023-01-23T09:52:11;16.40;;;7.50;;
77012;SDS011;65946;53.130;17.982;2023-01-23T09:54:45;17.20;;;8.90;;
77012;SDS011;65946;53.130;17.982;2023-01-23T09:57:20;19.60;;;9.90;;
77012;SDS011;65946;53.130;17.982;2023-01-23T09:59:56;15.50;;;7.80;;
77012;SDS011;65946;53.130;17.982;2023-01-23T10:02:30;10.60;;;5.30;;
77012;SDS011;65946;53.130;17.982;2023-01-23T10:04:59;8.10;;;3.90;;
77012;SDS011;65946;53.130;17.982;2023-01-23T10:07:47;14.10;;;6.70;;
77012;SDS011;65946;53.130;17.982;2023-01-23T10:10:39;14.50;;;6.90;;
77012;SDS011;65946;53.130;17.982;2023-01-23T10:13:12;14.40;;;7.20;;
77012;SDS011;65946;53.130;17.982;2023-01-23T10:21:20;11.40;;;5.70;;
77012;SDS011;65946;53.130;17.982;2023-01-23T10:26:50;16.60;;;8.00;;
77012;SDS011;65946;53.130;17.982;2023-01-23T10:29:26;13.10;;;6.20;;
77012;SDS011;65946;53.130;17.982;2023-01-23T10:31:56;15.20;;;8.00;;
77012;SDS011;65946;53.130;17.982;2023-01-23T10:34:33;18.30;;;7.80;;
77012;SDS011;65946;53.130;17.982;2023-01-23T10:40:18;16.30;;;7.90;;
77012;SDS011;65946;53.130;17.982;2023-01-23T10:43:12;18.70;;;9.10;;
77012;SDS011;65946;53.130;17.982;2023-01-23T10:45:44;15.40;;;7.90;;
77012;SDS011;65946;53.130;17.982;2023-01-23T10:50:54;15.10;;;7.30;;
77012;SDS011;65946;53.130;17.982;2023-01-23T10:53:21;13.70;;;6.80;;
77012;SDS011;65946;53.130;17.982;2023-01-23T10:55:48;14.80;;;7.60;;
77012;SDS011;65946;53.130;17.982;2023-01-23T10:58:22;17.60;;;7.70;;
77012;SDS011;65946;53.130;17.982;2023-01-23T11:01:01;14.30;;;7.20;;
77012;SDS011;65946;53.130;17.982;2023-01-23T11:03:30;14.10;;;7.40;;
77012;SDS011;65946;53.130;17.982;2023-01-23T11:06:05;15.60;;;8.30;;
77012;SDS011;65946;53.130;17.982;2023-01-23T11:08:35;19.90;;;10.80;;
77012;SDS011;65946;53.130;17.982;2023-01-23T11:13:40;17.30;;;8.30;;
77012;SDS011;65946;53.130;17.982;2023-01-23T11:16:14;11.90;;;6.20;;
77012;SDS011;65946;53.130;17.982;2023-01-23T11:18:46;14.40;;;7.60;;
77012;SDS011;65946;53.130;17.982;2023-01-23T11:21:20;13.80;;;7.80;;
77012;SDS011;65946;53.130;17.982;2023-01-23T11:23:47;13.90;;;6.90;;
77012;SDS011;65946;53.130;17.982;2023-01-23T11:26:29;21.60;;;10.20;;
77012;SDS011;65946;53.130;17.982;2023-01-23T11:28:57;18.20;;;9.40;;
77012;SDS011;65946;53.130;17.982;2023-01-23T11:31:24;14.30;;;7.20;;
77012;SDS011;65946;53.130;17.982;2023-01-23T11:41:52;14.60;;;7.10;;
77012;SDS011;65946;53.130;17.982;2023-01-23T11:44:19;18.80;;;9.00;;
77012;SDS011;65946;53.130;17.982;2023-01-23T11:49:52;18.20;;;9.30;;
77012;SDS011;65946;53.130;17.982;2023-01-23T12:09:12;14.10;;;7.20;;
77012;SDS011;65946;53.130;17.982;2023-01-23T12:22:33;23.90;;;11.30;;
77012;SDS011;65946;53.130;17.982;2023-01-23T12:25:10;18.00;;;9.10;;
77012;SDS011;65946;53.130;17.982;2023-01-23T12:36:17;23.30;;;10.60;;
77012;SDS011;65946;53.130;17.982;2023-01-23T12:41:57;24.40;;;10.20;;
77012;SDS011;65946;53.130;17.982;2023-01-23T12:44:36;22.70;;;10.80;;
77012;SDS011;65946;53.130;17.982;2023-01-23T12:49:42;19.20;;;9.20;;
77012;SDS011;65946;53.130;17.982;2023-01-23T12:52:24;26.70;;;12.30;;
77012;SDS011;65946;53.130;17.982;2023-01-23T12:57:47;17.80;;;8.20;;
77012;SDS011;65946;53.130;17.982;2023-01-23T13:09:06;17.40;;;8.50;;
77012;SDS011;65946;53.130;17.982;2023-01-23T13:12:00;26.30;;;11.80;;
77012;SDS011;65946;53.130;17.982;2023-01-23T13:16:58;28.10;;;12.80;;
77012;SDS011;65946;53.130;17.982;2023-01-23T13:19:29;18.50;;;9.00;;
77012;SDS011;65946;53.130;17.982;2023-01-23T13:24:46;24.90;;;11.30;;
77012;SDS011;65946;53.130;17.982;2023-01-23T13:32:28;25.10;;;10.60;;
77012;SDS011;65946;53.130;17.982;2023-01-23T13:34:54;27.30;;;12.10;;
77012;SDS011;65946;53.130;17.982;2023-01-23T13:40:27;18.90;;;8.20;;
77012;SDS011;65946;53.130;17.982;2023-01-23T13:42:47;17.40;;;7.30;;
77012;SDS011;65946;53.130;17.982;2023-01-23T13:47:54;23.10;;;10.10;;
77012;SDS011;65946;53.130;17.982;2023-01-23T13:50:54;15.90;;;7.40;;
77012;SDS011;65946;53.130;17.982;2023-01-23T13:53:30;19.40;;;8.90;;
77012;SDS011;65946;53.130;17.982;2023-01-23T13:56:16;16.00;;;6.90;;
77012;SDS011;65946;53.130;17.982;2023-01-23T13:59:05;21.30;;;9.90;;
77012;SDS011;65946;53.130;17.982;2023-01-23T14:01:42;17.20;;;7.40;;
77012;SDS011;65946;53.130;17.982;2023-01-23T14:04:33;22.00;;;9.40;;
77012;SDS011;65946;53.130;17.982;2023-01-23T14:13:11;15.80;;;7.40;;
77012;SDS011;65946;53.130;17.982;2023-01-23T14:15:44;21.80;;;10.00;;
77012;SDS011;65946;53.130;17.982;2023-01-23T14:18:42;24.00;;;10.40;;
77012;SDS011;65946;53.130;17.982;2023-01-23T14:23:47;24.20;;;11.00;;
77012;SDS011;65946;53.130;17.982;2023-01-23T14:26:46;20.20;;;9.40;;
77012;SDS011;65946;53.130;17.982;2023-01-23T14:29:20;15.50;;;7.40;;
77012;SDS011;65946;53.130;17.982;2023-01-23T14:31:48;21.50;;;10.40;;
77012;SDS011;65946;53.130;17.982;2023-01-23T14:34:19;19.70;;;8.70;;
77012;SDS011;65946;53.130;17.982;2023-01-23T14:36:49;18.50;;;9.30;;
77012;SDS011;65946;53.130;17.982;2023-01-23T14:39:22;20.30;;;9.10;;
77012;SDS011;65946;53.130;17.982;2023-01-23T14:41:56;11.40;;;5.50;;
77012;SDS011;65946;53.130;17.982;2023-01-23T14:44:26;19.10;;;9.20;;
77012;SDS011;65946;53.130;17.982;2023-01-23T14:47:05;19.80;;;9.40;;
77012;SDS011;65946;53.130;17.982;2023-01-23T14:49:41;21.40;;;9.60;;
77012;SDS011;65946;53.130;17.982;2023-01-23T14:52:20;21.50;;;9.30;;
77012;SDS011;65946;53.130;17.982;2023-01-23T14:54:49;18.90;;;8.10;;
77012;SDS011;65946;53.130;17.982;2023-01-23T14:57:16;16.20;;;7.30;;
77012;SDS011;65946;53.130;17.982;2023-01-23T14:59:46;20.60;;;8.40;;
77012;SDS011;65946;53.130;17.982;2023-01-23T15:02:26;23.30;;;11.30;;
77012;SDS011;65946;53.130;17.982;2023-01-23T15:10:28;21.10;;;8.60;;
77012;SDS011;65946;53.130;17.982;2023-01-23T15:13:04;9.80;;;4.20;;
77012;SDS011;65946;53.130;17.982;2023-01-23T15:15:43;15.20;;;7.10;;
77012;SDS011;65946;53.130;17.982;2023-01-23T15:18:24;14.40;;;6.20;;
77012;SDS011;65946;53.130;17.982;2023-01-23T15:20:54;17.30;;;7.50;;
77012;SDS011;65946;53.130;17.982;2023-01-23T15:23:29;18.70;;;8.50;;
77012;SDS011;65946;53.130;17.982;2023-01-23T15:26:20;18.20;;;8.60;;
77012;SDS011;65946;53.130;17.982;2023-01-23T15:28:49;16.30;;;8.00;;
77012;SDS011;65946;53.130;17.982;2023-01-23T15:31:38;21.40;;;9.80;;
77012;SDS011;65946;53.130;17.982;2023-01-23T15:39:23;20.50;;;9.30;;
77012;SDS011;65946;53.130;17.982;2023-01-23T15:42:00;18.60;;;6.90;;
77012;SDS011;65946;53.130;17.982;2023-01-23T15:44:48;18.80;;;7.60;;
77012;SDS011;65946;53.130;17.982;2023-01-23T15:47:15;18.60;;;8.90;;
77012;SDS011;65946;53.130;17.982;2023-01-23T15:49:42;19.70;;;8.90;;
77012;SDS011;65946;53.130;17.982;2023-01-23T15:52:19;20.10;;;8.90;;
77012;SDS011;65946;53.130;17.982;2023-01-23T15:54:52;30.30;;;13.60;;
77012;SDS011;65946;53.130;17.982;2023-01-23T15:57:22;21.40;;;9.70;;
77012;SDS011;65946;53.130;17.982;2023-01-23T15:59:48;25.80;;;10.70;;
77012;SDS011;65946;53.130;17.982;2023-01-23T16:04:44;18.40;;;8.40;;
77012;SDS011;65946;53.130;17.982;2023-01-23T16:07:54;21.30;;;10.60;;
77012;SDS011;65946;53.130;17.982;2023-01-23T16:10:04;24.90;;;11.60;;
77012;SDS011;65946;53.130;17.982;2023-01-23T16:12:41;15.90;;;7.20;;
77012;SDS011;65946;53.130;17.982;2023-01-23T16:15:12;14.70;;;7.10;;
77012;SDS011;65946;53.130;17.982;2023-01-23T16:17:41;26.50;;;13.60;;
77012;SDS011;65946;53.130;17.982;2023-01-23T16:20:18;19.60;;;9.80;;
77012;SDS011;65946;53.130;17.982;2023-01-23T16:22:53;20.20;;;8.60;;
77012;SDS011;65946;53.130;17.982;2023-01-23T16:25:55;21.30;;;10.60;;
77012;SDS011;65946;53.130;17.982;2023-01-23T16:28:16;18.90;;;8.90;;
77012;SDS011;65946;53.130;17.982;2023-01-23T16:30:44;34.70;;;15.00;;
77012;SDS011;65946;53.130;17.982;2023-01-23T16:33:12;17.10;;;7.90;;
77012;SDS011;65946;53.130;17.982;2023-01-23T16:35:41;18.40;;;8.50;;
77012;SDS011;65946;53.130;17.982;2023-01-23T16:38:18;15.90;;;7.90;;
77012;SDS011;65946;53.130;17.982;2023-01-23T16:40:48;22.90;;;10.90;;
77012;SDS011;65946;53.130;17.982;2023-01-23T16:43:18;22.40;;;9.60;;
77012;SDS011;65946;53.130;17.982;2023-01-23T16:45:46;22.70;;;10.20;;
77012;SDS011;65946;53.130;17.982;2023-01-23T16:48:13;13.50;;;6.40;;
77012;SDS011;65946;53.130;17.982;2023-01-23T16:50:41;18.70;;;7.50;;
77012;SDS011;65946;53.130;17.982;2023-01-23T16:55:47;21.20;;;9.00;;
77012;SDS011;65946;53.130;17.982;2023-01-23T16:58:18;18.80;;;9.00;;
77012;SDS011;65946;53.130;17.982;2023-01-23T17:00:48;23.00;;;10.20;;
77012;SDS011;65946;53.130;17.982;2023-01-23T17:03:20;12.60;;;5.70;;
77012;SDS011;65946;53.130;17.982;2023-01-23T17:05:50;23.00;;;10.90;;
77012;SDS011;65946;53.130;17.982;2023-01-23T17:08:17;17.30;;;8.10;;
77012;SDS011;65946;53.130;17.982;2023-01-23T17:10:46;14.70;;;6.20;;
77012;SDS011;65946;53.130;17.982;2023-01-23T17:13:14;18.90;;;8.30;;
77012;SDS011;65946;53.130;17.982;2023-01-23T17:15:43;19.80;;;8.80;;
77012;SDS011;65946;53.130;17.982;2023-01-23T17:18:18;22.20;;;10.10;;
77012;SDS011;65946;53.130;17.982;2023-01-23T17:20:48;17.00;;;8.90;;
77012;SDS011;65946;53.130;17.982;2023-01-23T17:23:15;20.90;;;9.60;;
77012;SDS011;65946;53.130;17.982;2023-01-23T17:25:41;14.30;;;7.30;;
77012;SDS011;65946;53.130;17.982;2023-01-23T17:28:13;13.80;;;5.90;;
77012;SDS011;65946;53.130;17.982;2023-01-23T17:30:41;16.60;;;7.80;;